sensor_id;sensor_type;location;lat;lon;timestamp;P1;durP1;ratioP1;P2;durP2;ratioP2
9745;SDS011;4912;50.836;12.958;2024-01-15T00:01:20;19.03;;;8.50;;
9745;SDS011;4912;50.836;12.958;2024-01-15T00:03:57;17.00;;;8.10;;
9745;SDS011;4912;50.836;12.958;2024-01-15T00:06:38;20.77;;;7.43;;
9745;SDS011;4912;50.836;12.958;2024-01-15T00:09:12;18.20;;;8.20;;
9745;SDS011;4912;50.836;12.958;2024-01-15T00:11:48;17.13;;;8.03;;
9745;SDS011;4912;50.836;12.958;2024-01-15T00:14:22;20.80;;;8.43;;
9745;SDS011;4912;50.836;12.958;2024-01-15T00:16:56;22.20;;;9.60;;
9745;SDS011;4912;50.836;12.958;2024-01-15T00:19:29;21.77;;;9.30;;
9745;SDS011;4912;50.836;12.958;2024-01-15T00:22:04;20.67;;;8.20;;
9745;SDS011;4912;50.836;12.958;2024-01-15T00:24:36;19.83;;;8.23;;
9745;SDS011;4912;50.836;12.958;2024-01-15T00:27:07;23.90;;;9.17;;
9745;SDS011;4912;50.836;12.958;2024-01-15T00:29:43;21.63;;;8.53;;
9745;SDS011;4912;50.836;12.958;2024-01-15T00:34:48;21.13;;;8.53;;
9745;SDS011;4912;50.836;12.958;2024-01-15T00:37:19;17.63;;;8.67;;
9745;SDS011;4912;50.836;12.958;2024-01-15T00:39:50;18.05;;;7.90;;
9745;SDS011;4912;50.836;12.958;2024-01-15T00:42:28;19.67;;;8.73;;
9745;SDS011;4912;50.836;12.958;2024-01-15T00:45:34;22.00;;;9.10;;
9745;SDS011;4912;50.836;12.958;2024-01-15T00:48:08;18.80;;;8.13;;
9745;SDS011;4912;50.836;12.958;2024-01-15T00:50:42;19.98;;;8.25;;
9745;SDS011;4912;50.836;12.958;2024-01-15T00:53:14;20.27;;;8.27;;
9745;SDS011;4912;50.836;12.958;2024-01-15T00:55:49;19.37;;;8.87;;
9745;SDS011;4912;50.836;12.958;2024-01-15T00:58:19;18.48;;;8.23;;
9745;SDS011;4912;50.836;12.958;2024-01-15T01:00:50;18.75;;;8.75;;
9745;SDS011;4912;50.836;12.958;2024-01-15T01:03:21;20.10;;;8.93;;
9745;SDS011;4912;50.836;12.958;2024-01-15T01:05:56;21.03;;;8.97;;
9745;SDS011;4912;50.836;12.958;2024-01-15T01:08:40;20.50;;;8.80;;
9745;SDS011;4912;50.836;12.958;2024-01-15T01:11:23;23.08;;;9.55;;
9745;SDS011;4912;50.836;12.958;2024-01-15T01:14:10;21.13;;;9.07;;
9745;SDS011;4912;50.836;12.958;2024-01-15T01:16:48;22.63;;;9.43;;
9745;SDS011;4912;50.836;12.958;2024-01-15T01:19:18;24.50;;;10.52;;
9745;SDS011;4912;50.836;12.958;2024-01-15T01:21:52;21.17;;;8.52;;
9745;SDS011;4912;50.836;12.958;2024-01-15T01:24:23;19.83;;;8.53;;
9745;SDS011;4912;50.836;12.958;2024-01-15T01:26:55;20.20;;;8.40;;
9745;SDS011;4912;50.836;12.958;2024-01-15T01:29:28;20.13;;;9.30;;
9745;SDS011;4912;50.836;12.958;2024-01-15T01:31:59;23.92;;;9.55;;
9745;SDS011;4912;50.836;12.958;2024-01-15T01:34:32;19.80;;;8.80;;
9745;SDS011;4912;50.836;12.958;2024-01-15T01:37:11;20.93;;;8.53;;
9745;SDS011;4912;50.836;12.958;2024-01-15T01:39:43;22.13;;;8.77;;
9745;SDS011;4912;50.836;12.958;2024-01-15T01:42:17;24.73;;;8.93;;
9745;SDS011;4912;50.836;12.958;2024-01-15T01:44:50;22.87;;;9.50;;
9745;SDS011;4912;50.836;12.958;2024-01-15T01:47:20;22.07;;;10.03;;
9745;SDS011;4912;50.836;12.958;2024-01-15T01:49:53;18.23;;;8.83;;
9745;SDS011;4912;50.836;12.958;2024-01-15T01:52:27;21.10;;;8.85;;
9745;SDS011;4912;50.836;12.958;2024-01-15T01:54:58;19.67;;;9.70;;
9745;SDS011;4912;50.836;12.958;2024-01-15T01:57:30;22.60;;;9.93;;
9745;SDS011;4912;50.836;12.958;2024-01-15T02:00:03;20.07;;;8.93;;
9745;SDS011;4912;50.836;12.958;2024-01-15T02:02:39;20.70;;;9.93;;
9745;SDS011;4912;50.836;12.958;2024-01-15T02:07:45;20.37;;;8.77;;
9745;SDS011;4912;50.836;12.958;2024-01-15T02:10:16;23.23;;;9.30;;
9745;SDS011;4912;50.836;12.958;2024-01-15T02:13:10;22.67;;;10.23;;
9745;SDS011;4912;50.836;12.958;2024-01-15T02:15:55;22.87;;;9.20;;
9745;SDS011;4912;50.836;12.958;2024-01-15T02:18:26;21.03;;;9.73;;
9745;SDS011;4912;50.836;12.958;2024-01-15T02:21:02;27.97;;;10.60;;
9745;SDS011;4912;50.836;12.958;2024-01-15T02:23:56;23.97;;;9.30;;
9745;SDS011;4912;50.836;12.958;2024-01-15T02:26:26;23.33;;;10.57;;
9745;SDS011;4912;50.836;12.958;2024-01-15T02:28:57;25.38;;;11.00;;
9745;SDS011;4912;50.836;12.958;2024-01-15T02:31:29;22.07;;;10.20;;
9745;SDS011;4912;50.836;12.958;2024-01-15T02:34:00;22.00;;;10.27;;
9745;SDS011;4912;50.836;12.958;2024-01-15T02:36:31;26.65;;;11.02;;
9745;SDS011;4912;50.836;12.958;2024-01-15T02:39:06;24.43;;;10.93;;
9745;SDS011;4912;50.836;12.958;2024-01-15T02:41:36;25.13;;;10.93;;
9745;SDS011;4912;50.836;12.958;2024-01-15T02:44:07;26.27;;;11.53;;
9745;SDS011;4912;50.836;12.958;2024-01-15T02:46:38;26.77;;;11.40;;
9745;SDS011;4912;50.836;12.958;2024-01-15T02:49:17;23.90;;;10.97;;
9745;SDS011;4912;50.836;12.958;2024-01-15T02:51:48;26.90;;;11.93;;
9745;SDS011;4912;50.836;12.958;2024-01-15T02:54:21;27.73;;;11.20;;
9745;SDS011;4912;50.836;12.958;2024-01-15T02:56:54;26.20;;;11.70;;
9745;SDS011;4912;50.836;12.958;2024-01-15T02:59:24;28.63;;;10.95;;
9745;SDS011;4912;50.836;12.958;2024-01-15T03:01:55;27.30;;;10.95;;
9745;SDS011;4912;50.836;12.958;2024-01-15T03:04:26;23.23;;;10.57;;
9745;SDS011;4912;50.836;12.958;2024-01-15T03:06:56;23.55;;;9.73;;
9745;SDS011;4912;50.836;12.958;2024-01-15T03:09:30;29.77;;;12.40;;
9745;SDS011;4912;50.836;12.958;2024-01-15T03:12:00;29.47;;;12.10;;
9745;SDS011;4912;50.836;12.958;2024-01-15T03:14:31;30.77;;;12.55;;
9745;SDS011;4912;50.836;12.958;2024-01-15T03:17:02;26.92;;;10.98;;
9745;SDS011;4912;50.836;12.958;2024-01-15T03:19:35;27.67;;;12.40;;
9745;SDS011;4912;50.836;12.958;2024-01-15T03:22:06;30.65;;;12.40;;
9745;SDS011;4912;50.836;12.958;2024-01-15T03:24:40;28.20;;;11.55;;
9745;SDS011;4912;50.836;12.958;2024-01-15T03:27:10;29.80;;;11.30;;
9745;SDS011;4912;50.836;12.958;2024-01-15T03:29:41;32.85;;;12.52;;
9745;SDS011;4912;50.836;12.958;2024-01-15T03:32:12;25.73;;;11.15;;
9745;SDS011;4912;50.836;12.958;2024-01-15T03:37:14;30.20;;;11.60;;
9745;SDS011;4912;50.836;12.958;2024-01-15T03:39:48;26.13;;;10.63;;
9745;SDS011;4912;50.836;12.958;2024-01-15T03:42:18;27.67;;;10.67;;
9745;SDS011;4912;50.836;12.958;2024-01-15T03:44:49;28.27;;;11.45;;
9745;SDS011;4912;50.836;12.958;2024-01-15T03:47:19;22.02;;;9.32;;
9745;SDS011;4912;50.836;12.958;2024-01-15T03:49:50;22.30;;;9.90;;
9745;SDS011;4912;50.836;12.958;2024-01-15T03:52:21;24.35;;;10.40;;
9745;SDS011;4912;50.836;12.958;2024-01-15T03:54:54;23.08;;;9.68;;
9745;SDS011;4912;50.836;12.958;2024-01-15T03:57:26;24.63;;;10.70;;
9745;SDS011;4912;50.836;12.958;2024-01-15T03:59:57;29.13;;;11.50;;
9745;SDS011;4912;50.836;12.958;2024-01-15T04:02:30;28.07;;;11.77;;
9745;SDS011;4912;50.836;12.958;2024-01-15T04:05:01;28.23;;;11.63;;
9745;SDS011;4912;50.836;12.958;2024-01-15T04:07:34;26.13;;;11.50;;
9745;SDS011;4912;50.836;12.958;2024-01-15T04:10:10;28.33;;;11.27;;
9745;SDS011;4912;50.836;12.958;2024-01-15T04:12:41;27.83;;;11.70;;
9745;SDS011;4912;50.836;12.958;2024-01-15T04:15:15;30.60;;;11.43;;
9745;SDS011;4912;50.836;12.958;2024-01-15T04:17:45;30.33;;;11.43;;
9745;SDS011;4912;50.836;12.958;2024-01-15T04:20:16;32.33;;;12.00;;
9745;SDS011;4912;50.836;12.958;2024-01-15T04:22:51;29.17;;;11.60;;
9745;SDS011;4912;50.836;12.958;2024-01-15T04:25:27;27.03;;;10.20;;
9745;SDS011;4912;50.836;12.958;2024-01-15T04:28:00;28.90;;;10.87;;
9745;SDS011;4912;50.836;12.958;2024-01-15T04:33:02;25.67;;;10.97;;
9745;SDS011;4912;50.836;12.958;2024-01-15T04:35:34;31.17;;;11.03;;
9745;SDS011;4912;50.836;12.958;2024-01-15T04:38:05;30.98;;;11.52;;
9745;SDS011;4912;50.836;12.958;2024-01-15T04:40:39;30.80;;;12.23;;
9745;SDS011;4912;50.836;12.958;2024-01-15T04:43:10;30.70;;;11.73;;
9745;SDS011;4912;50.836;12.958;2024-01-15T04:45:40;32.40;;;12.82;;
9745;SDS011;4912;50.836;12.958;2024-01-15T04:48:11;31.08;;;12.13;;
9745;SDS011;4912;50.836;12.958;2024-01-15T04:50:42;31.10;;;11.70;;
9745;SDS011;4912;50.836;12.958;2024-01-15T04:53:17;29.53;;;11.63;;
9745;SDS011;4912;50.836;12.958;2024-01-15T04:55:50;27.87;;;11.17;;
9745;SDS011;4912;50.836;12.958;2024-01-15T04:58:21;33.00;;;11.60;;
9745;SDS011;4912;50.836;12.958;2024-01-15T05:00:54;30.90;;;11.80;;
9745;SDS011;4912;50.836;12.958;2024-01-15T05:03:25;31.13;;;11.52;;
9745;SDS011;4912;50.836;12.958;2024-01-15T05:05:55;32.47;;;11.60;;
9745;SDS011;4912;50.836;12.958;2024-01-15T05:08:26;27.60;;;10.45;;
9745;SDS011;4912;50.836;12.958;2024-01-15T05:10:59;27.98;;;11.23;;
9745;SDS011;4912;50.836;12.958;2024-01-15T05:13:30;24.60;;;11.13;;
9745;SDS011;4912;50.836;12.958;2024-01-15T05:16:01;32.00;;;11.73;;
9745;SDS011;4912;50.836;12.958;2024-01-15T05:18:31;30.55;;;11.90;;
9745;SDS011;4912;50.836;12.958;2024-01-15T05:21:04;30.53;;;12.40;;
9745;SDS011;4912;50.836;12.958;2024-01-15T05:23:34;30.45;;;12.32;;
9745;SDS011;4912;50.836;12.958;2024-01-15T05:26:08;24.48;;;10.02;;
9745;SDS011;4912;50.836;12.958;2024-01-15T05:28:38;25.40;;;9.83;;
9745;SDS011;4912;50.836;12.958;2024-01-15T05:31:11;28.20;;;10.47;;
9745;SDS011;4912;50.836;12.958;2024-01-15T05:33:42;27.25;;;10.65;;
9745;SDS011;4912;50.836;12.958;2024-01-15T05:36:13;18.80;;;8.40;;
9745;SDS011;4912;50.836;12.958;2024-01-15T05:38:43;21.77;;;9.55;;
9745;SDS011;4912;50.836;12.958;2024-01-15T05:43:48;26.03;;;9.33;;
9745;SDS011;4912;50.836;12.958;2024-01-15T05:46:18;24.38;;;9.57;;
9745;SDS011;4912;50.836;12.958;2024-01-15T05:48:49;30.10;;;10.52;;
9745;SDS011;4912;50.836;12.958;2024-01-15T05:51:20;25.95;;;10.20;;
9745;SDS011;4912;50.836;12.958;2024-01-15T05:53:50;21.90;;;9.45;;
9745;SDS011;4912;50.836;12.958;2024-01-15T05:56:23;26.30;;;9.40;;
9745;SDS011;4912;50.836;12.958;2024-01-15T05:58:54;22.97;;;9.50;;
9745;SDS011;4912;50.836;12.958;2024-01-15T06:01:25;19.77;;;8.95;;
9745;SDS011;4912;50.836;12.958;2024-01-15T06:03:55;23.20;;;8.55;;
9745;SDS011;4912;50.836;12.958;2024-01-15T06:06:26;22.58;;;9.07;;
9745;SDS011;4912;50.836;12.958;2024-01-15T06:08:57;21.55;;;8.55;;
9745;SDS011;4912;50.836;12.958;2024-01-15T06:11:35;20.67;;;8.73;;
9745;SDS011;4912;50.836;12.958;2024-01-15T06:14:05;21.73;;;8.90;;
9745;SDS011;4912;50.836;12.958;2024-01-15T06:16:36;20.93;;;8.37;;
9745;SDS011;4912;50.836;12.958;2024-01-15T06:19:06;19.30;;;8.68;;
9745;SDS011;4912;50.836;12.958;2024-01-15T06:21:37;18.25;;;8.45;;
9745;SDS011;4912;50.836;12.958;2024-01-15T06:24:08;17.95;;;7.57;;
9745;SDS011;4912;50.836;12.958;2024-01-15T06:26:43;20.23;;;8.40;;
9745;SDS011;4912;50.836;12.958;2024-01-15T06:29:13;20.13;;;8.47;;
9745;SDS011;4912;50.836;12.958;2024-01-15T06:31:44;24.58;;;9.68;;
9745;SDS011;4912;50.836;12.958;2024-01-15T06:34:15;17.45;;;7.65;;
9745;SDS011;4912;50.836;12.958;2024-01-15T06:36:45;21.33;;;8.90;;
9745;SDS011;4912;50.836;12.958;2024-01-15T06:39:16;22.20;;;8.80;;
9745;SDS011;4912;50.836;12.958;2024-01-15T06:41:50;20.58;;;7.70;;
9745;SDS011;4912;50.836;12.958;2024-01-15T06:44:20;22.30;;;8.70;;
9745;SDS011;4912;50.836;12.958;2024-01-15T06:46:50;18.07;;;7.73;;
9745;SDS011;4912;50.836;12.958;2024-01-15T06:49:24;18.00;;;8.17;;
9745;SDS011;4912;50.836;12.958;2024-01-15T06:51:54;20.95;;;8.63;;
9745;SDS011;4912;50.836;12.958;2024-01-15T06:54:25;19.80;;;8.73;;
9745;SDS011;4912;50.836;12.958;2024-01-15T06:56:58;19.42;;;8.10;;
9745;SDS011;4912;50.836;12.958;2024-01-15T06:59:29;22.33;;;9.10;;
9745;SDS011;4912;50.836;12.958;2024-01-15T07:01:59;23.17;;;9.13;;
9745;SDS011;4912;50.836;12.958;2024-01-15T07:04:30;24.50;;;8.95;;
9745;SDS011;4912;50.836;12.958;2024-01-15T07:07:01;22.27;;;9.48;;
9745;SDS011;4912;50.836;12.958;2024-01-15T07:09:31;21.05;;;8.85;;
9745;SDS011;4912;50.836;12.958;2024-01-15T07:12:05;21.25;;;8.98;;
9745;SDS011;4912;50.836;12.958;2024-01-15T07:14:36;19.37;;;7.63;;
9745;SDS011;4912;50.836;12.958;2024-01-15T07:17:06;20.80;;;8.67;;
9745;SDS011;4912;50.836;12.958;2024-01-15T07:19:37;24.30;;;9.27;;
9745;SDS011;4912;50.836;12.958;2024-01-15T07:22:10;24.43;;;9.27;;
9745;SDS011;4912;50.836;12.958;2024-01-15T07:24:41;21.93;;;9.27;;
9745;SDS011;4912;50.836;12.958;2024-01-15T07:27:15;22.63;;;8.70;;
9745;SDS011;4912;50.836;12.958;2024-01-15T07:29:45;21.90;;;9.23;;
9745;SDS011;4912;50.836;12.958;2024-01-15T07:32:16;21.33;;;9.45;;
9745;SDS011;4912;50.836;12.958;2024-01-15T07:37:18;23.43;;;9.10;;
9745;SDS011;4912;50.836;12.958;2024-01-15T07:39:50;21.63;;;9.50;;
9745;SDS011;4912;50.836;12.958;2024-01-15T07:42:23;20.98;;;8.77;;
9745;SDS011;4912;50.836;12.958;2024-01-15T07:44:54;21.70;;;9.03;;
9745;SDS011;4912;50.836;12.958;2024-01-15T07:47:24;21.90;;;9.15;;
9745;SDS011;4912;50.836;12.958;2024-01-15T07:49:55;23.52;;;10.10;;
9745;SDS011;4912;50.836;12.958;2024-01-15T07:52:31;21.77;;;8.83;;
9745;SDS011;4912;50.836;12.958;2024-01-15T07:55:02;18.40;;;7.75;;
9745;SDS011;4912;50.836;12.958;2024-01-15T07:57:36;19.27;;;8.23;;
9745;SDS011;4912;50.836;12.958;2024-01-15T08:00:07;21.67;;;8.47;;
9745;SDS011;4912;50.836;12.958;2024-01-15T08:02:38;19.67;;;8.30;;
9745;SDS011;4912;50.836;12.958;2024-01-15T08:05:09;14.27;;;6.17;;
9745;SDS011;4912;50.836;12.958;2024-01-15T08:07:39;18.27;;;7.85;;
9745;SDS011;4912;50.836;12.958;2024-01-15T08:10:10;17.13;;;7.43;;
9745;SDS011;4912;50.836;12.958;2024-01-15T08:12:44;17.88;;;8.57;;
9745;SDS011;4912;50.836;12.958;2024-01-15T08:15:14;18.50;;;7.40;;
9745;SDS011;4912;50.836;12.958;2024-01-15T08:17:45;17.52;;;7.72;;
9745;SDS011;4912;50.836;12.958;2024-01-15T08:20:16;15.52;;;6.85;;
9745;SDS011;4912;50.836;12.958;2024-01-15T08:22:47;19.50;;;7.88;;
9745;SDS011;4912;50.836;12.958;2024-01-15T08:25:17;18.17;;;7.45;;
9745;SDS011;4912;50.836;12.958;2024-01-15T08:27:50;16.88;;;7.85;;
9745;SDS011;4912;50.836;12.958;2024-01-15T08:30:21;20.27;;;7.00;;
9745;SDS011;4912;50.836;12.958;2024-01-15T08:32:54;18.30;;;8.03;;
9745;SDS011;4912;50.836;12.958;2024-01-15T08:35:36;18.80;;;7.70;;
9745;SDS011;4912;50.836;12.958;2024-01-15T08:38:07;16.77;;;7.05;;
9745;SDS011;4912;50.836;12.958;2024-01-15T08:40:38;15.77;;;7.35;;
9745;SDS011;4912;50.836;12.958;2024-01-15T08:43:11;15.48;;;6.85;;
9745;SDS011;4912;50.836;12.958;2024-01-15T08:45:41;17.13;;;7.00;;
9745;SDS011;4912;50.836;12.958;2024-01-15T08:48:13;19.97;;;8.00;;
9745;SDS011;4912;50.836;12.958;2024-01-15T08:50:44;17.33;;;7.53;;
9745;SDS011;4912;50.836;12.958;2024-01-15T08:53:17;18.70;;;7.00;;
9745;SDS011;4912;50.836;12.958;2024-01-15T08:55:48;12.55;;;6.38;;
9745;SDS011;4912;50.836;12.958;2024-01-15T08:58:22;16.45;;;6.72;;
9745;SDS011;4912;50.836;12.958;2024-01-15T09:00:54;15.50;;;7.00;;
9745;SDS011;4912;50.836;12.958;2024-01-15T09:03:24;15.35;;;6.05;;
9745;SDS011;4912;50.836;12.958;2024-01-15T09:05:55;12.60;;;5.22;;
9745;SDS011;4912;50.836;12.958;2024-01-15T09:08:26;17.70;;;7.22;;
9745;SDS011;4912;50.836;12.958;2024-01-15T09:10:57;17.90;;;6.68;;
9745;SDS011;4912;50.836;12.958;2024-01-15T09:13:32;16.67;;;7.50;;
9745;SDS011;4912;50.836;12.958;2024-01-15T09:16:02;15.67;;;6.77;;
9745;SDS011;4912;50.836;12.958;2024-01-15T09:18:34;16.47;;;7.10;;
9745;SDS011;4912;50.836;12.958;2024-01-15T09:21:04;17.15;;;7.13;;
9745;SDS011;4912;50.836;12.958;2024-01-15T09:23:35;16.00;;;7.07;;
9745;SDS011;4912;50.836;12.958;2024-01-15T09:26:07;16.77;;;7.55;;
9745;SDS011;4912;50.836;12.958;2024-01-15T09:28:41;14.80;;;7.23;;
9745;SDS011;4912;50.836;12.958;2024-01-15T09:31:11;15.57;;;6.83;;
9745;SDS011;4912;50.836;12.958;2024-01-15T09:33:44;17.67;;;7.00;;
9745;SDS011;4912;50.836;12.958;2024-01-15T09:36:15;17.33;;;6.47;;
9745;SDS011;4912;50.836;12.958;2024-01-15T09:38:45;14.15;;;5.70;;
9745;SDS011;4912;50.836;12.958;2024-01-15T09:41:16;19.27;;;7.35;;
9745;SDS011;4912;50.836;12.958;2024-01-15T09:43:49;15.13;;;6.80;;
9745;SDS011;4912;50.836;12.958;2024-01-15T09:46:20;15.07;;;6.83;;
9745;SDS011;4912;50.836;12.958;2024-01-15T09:48:51;16.00;;;7.43;;
9745;SDS011;4912;50.836;12.958;2024-01-15T09:51:22;14.75;;;6.78;;
9745;SDS011;4912;50.836;12.958;2024-01-15T09:53:54;20.03;;;7.53;;
9745;SDS011;4912;50.836;12.958;2024-01-15T09:56:25;15.35;;;6.85;;
9745;SDS011;4912;50.836;12.958;2024-01-15T09:58:58;15.82;;;7.13;;
9745;SDS011;4912;50.836;12.958;2024-01-15T10:01:31;15.23;;;6.70;;
9745;SDS011;4912;50.836;12.958;2024-01-15T10:04:02;15.67;;;7.00;;
9745;SDS011;4912;50.836;12.958;2024-01-15T10:06:33;16.45;;;6.60;;
9745;SDS011;4912;50.836;12.958;2024-01-15T10:09:05;15.80;;;6.93;;
9745;SDS011;4912;50.836;12.958;2024-01-15T10:11:36;15.77;;;6.03;;
9745;SDS011;4912;50.836;12.958;2024-01-15T10:14:10;14.93;;;6.72;;
9745;SDS011;4912;50.836;12.958;2024-01-15T10:16:41;13.60;;;6.37;;
9745;SDS011;4912;50.836;12.958;2024-01-15T10:19:12;13.90;;;6.60;;
9745;SDS011;4912;50.836;12.958;2024-01-15T10:21:43;16.67;;;6.70;;
9745;SDS011;4912;50.836;12.958;2024-01-15T10:24:14;15.38;;;6.68;;
9745;SDS011;4912;50.836;12.958;2024-01-15T10:26:44;15.57;;;6.22;;
9745;SDS011;4912;50.836;12.958;2024-01-15T10:29:18;17.38;;;7.68;;
9745;SDS011;4912;50.836;12.958;2024-01-15T10:31:48;14.07;;;6.30;;
9745;SDS011;4912;50.836;12.958;2024-01-15T10:34:19;18.67;;;6.65;;
9745;SDS011;4912;50.836;12.958;2024-01-15T10:36:50;16.05;;;6.32;;
9745;SDS011;4912;50.836;12.958;2024-01-15T10:39:22;12.67;;;6.03;;
9745;SDS011;4912;50.836;12.958;2024-01-15T10:41:53;12.52;;;5.93;;
9745;SDS011;4912;50.836;12.958;2024-01-15T10:44:27;15.98;;;6.82;;
9745;SDS011;4912;50.836;12.958;2024-01-15T10:46:57;11.27;;;5.77;;
9745;SDS011;4912;50.836;12.958;2024-01-15T10:49:28;12.05;;;5.55;;
9745;SDS011;4912;50.836;12.958;2024-01-15T10:52:00;13.77;;;5.63;;
9745;SDS011;4912;50.836;12.958;2024-01-15T10:54:31;13.70;;;6.90;;
9745;SDS011;4912;50.836;12.958;2024-01-15T10:57:04;11.93;;;5.23;;
9745;SDS011;4912;50.836;12.958;2024-01-15T10:59:38;13.43;;;5.70;;
9745;SDS011;4912;50.836;12.958;2024-01-15T11:02:09;12.30;;;5.90;;
9745;SDS011;4912;50.836;12.958;2024-01-15T11:04:42;14.10;;;6.53;;
9745;SDS011;4912;50.836;12.958;2024-01-15T11:07:13;11.93;;;5.85;;
9745;SDS011;4912;50.836;12.958;2024-01-15T11:09:45;16.63;;;5.63;;
9745;SDS011;4912;50.836;12.958;2024-01-15T11:12:16;12.50;;;5.72;;
9745;SDS011;4912;50.836;12.958;2024-01-15T11:14:50;10.60;;;5.27;;
9745;SDS011;4912;50.836;12.958;2024-01-15T11:17:24;15.30;;;6.13;;
9745;SDS011;4912;50.836;12.958;2024-01-15T11:19:55;13.50;;;6.32;;
9745;SDS011;4912;50.836;12.958;2024-01-15T11:25:18;13.77;;;6.30;;
9745;SDS011;4912;50.836;12.958;2024-01-15T11:27:50;15.65;;;5.85;;
9745;SDS011;4912;50.836;12.958;2024-01-15T11:30:26;11.17;;;5.27;;
9745;SDS011;4912;50.836;12.958;2024-01-15T11:32:57;10.97;;;5.40;;
9745;SDS011;4912;50.836;12.958;2024-01-15T11:38:28;14.37;;;5.67;;
9745;SDS011;4912;50.836;12.958;2024-01-15T11:40:59;12.63;;;5.53;;
9745;SDS011;4912;50.836;12.958;2024-01-15T11:43:30;11.63;;;5.28;;
9745;SDS011;4912;50.836;12.958;2024-01-15T11:46:04;12.20;;;5.73;;
9745;SDS011;4912;50.836;12.958;2024-01-15T11:48:43;10.77;;;5.13;;
9745;SDS011;4912;50.836;12.958;2024-01-15T11:51:15;11.60;;;5.77;;
9745;SDS011;4912;50.836;12.958;2024-01-15T11:53:48;13.23;;;5.67;;
9745;SDS011;4912;50.836;12.958;2024-01-15T11:56:28;12.15;;;5.10;;
9745;SDS011;4912;50.836;12.958;2024-01-15T11:58:59;11.60;;;5.43;;
9745;SDS011;4912;50.836;12.958;2024-01-15T12:01:33;12.03;;;5.47;;
9745;SDS011;4912;50.836;12.958;2024-01-15T12:04:04;13.03;;;5.70;;
9745;SDS011;4912;50.836;12.958;2024-01-15T12:06:35;12.52;;;5.72;;
9745;SDS011;4912;50.836;12.958;2024-01-15T12:09:06;11.65;;;4.90;;
9745;SDS011;4912;50.836;12.958;2024-01-15T12:11:37;13.52;;;5.78;;
9745;SDS011;4912;50.836;12.958;2024-01-15T12:14:14;11.63;;;5.67;;
9745;SDS011;4912;50.836;12.958;2024-01-15T12:16:47;18.60;;;6.20;;
9745;SDS011;4912;50.836;12.958;2024-01-15T12:19:18;12.27;;;5.43;;
9745;SDS011;4912;50.836;12.958;2024-01-15T12:21:50;12.37;;;5.77;;
9745;SDS011;4912;50.836;12.958;2024-01-15T12:24:21;15.65;;;5.20;;
9745;SDS011;4912;50.836;12.958;2024-01-15T12:26:52;9.93;;;4.72;;
9745;SDS011;4912;50.836;12.958;2024-01-15T12:29:23;12.52;;;5.15;;
9745;SDS011;4912;50.836;12.958;2024-01-15T12:31:56;9.77;;;4.90;;
9745;SDS011;4912;50.836;12.958;2024-01-15T12:34:28;13.80;;;4.73;;
9745;SDS011;4912;50.836;12.958;2024-01-15T12:37:00;12.90;;;5.40;;
9745;SDS011;4912;50.836;12.958;2024-01-15T12:39:31;12.50;;;5.97;;
9745;SDS011;4912;50.836;12.958;2024-01-15T12:42:04;12.47;;;5.83;;
9745;SDS011;4912;50.836;12.958;2024-01-15T12:44:35;14.07;;;5.00;;
9745;SDS011;4912;50.836;12.958;2024-01-15T12:47:09;10.85;;;5.25;;
9745;SDS011;4912;50.836;12.958;2024-01-15T12:49:40;14.07;;;5.90;;
9745;SDS011;4912;50.836;12.958;2024-01-15T12:52:11;11.77;;;5.47;;
9745;SDS011;4912;50.836;12.958;2024-01-15T12:54:42;9.45;;;4.88;;
9745;SDS011;4912;50.836;12.958;2024-01-15T12:57:13;11.95;;;4.95;;
9745;SDS011;4912;50.836;12.958;2024-01-15T12:59:44;9.98;;;4.57;;
9745;SDS011;4912;50.836;12.958;2024-01-15T13:02:18;11.70;;;4.90;;
9745;SDS011;4912;50.836;12.958;2024-01-15T13:04:52;9.20;;;4.80;;
9745;SDS011;4912;50.836;12.958;2024-01-15T13:07:23;14.53;;;6.27;;
9745;SDS011;4912;50.836;12.958;2024-01-15T13:09:57;12.07;;;5.90;;
9745;SDS011;4912;50.836;12.958;2024-01-15T13:12:31;11.93;;;4.70;;
9745;SDS011;4912;50.836;12.958;2024-01-15T13:15:09;13.63;;;5.27;;
9745;SDS011;4912;50.836;12.958;2024-01-15T13:17:44;9.23;;;4.83;;
9745;SDS011;4912;50.836;12.958;2024-01-15T13:20:17;12.40;;;4.50;;
9745;SDS011;4912;50.836;12.958;2024-01-15T13:22:49;12.43;;;5.40;;
9745;SDS011;4912;50.836;12.958;2024-01-15T13:25:19;17.38;;;5.63;;
9745;SDS011;4912;50.836;12.958;2024-01-15T13:30:21;11.40;;;5.10;;
9745;SDS011;4912;50.836;12.958;2024-01-15T13:32:55;11.07;;;5.17;;
9745;SDS011;4912;50.836;12.958;2024-01-15T13:35:31;12.03;;;4.97;;
9745;SDS011;4912;50.836;12.958;2024-01-15T13:40:36;10.03;;;4.50;;
9745;SDS011;4912;50.836;12.958;2024-01-15T13:43:06;10.57;;;4.70;;
9745;SDS011;4912;50.836;12.958;2024-01-15T13:45:37;9.60;;;4.57;;
9745;SDS011;4912;50.836;12.958;2024-01-15T13:48:10;12.05;;;5.40;;
9745;SDS011;4912;50.836;12.958;2024-01-15T13:50:41;12.63;;;5.10;;
9745;SDS011;4912;50.836;12.958;2024-01-15T13:53:12;11.82;;;4.78;;
9745;SDS011;4912;50.836;12.958;2024-01-15T13:55:47;11.27;;;5.20;;
9745;SDS011;4912;50.836;12.958;2024-01-15T13:58:17;14.53;;;5.83;;
9745;SDS011;4912;50.836;12.958;2024-01-15T14:00:48;11.07;;;5.22;;
9745;SDS011;4912;50.836;12.958;2024-01-15T14:03:21;10.63;;;5.20;;
9745;SDS011;4912;50.836;12.958;2024-01-15T14:05:55;10.50;;;5.07;;
9745;SDS011;4912;50.836;12.958;2024-01-15T14:08:25;12.90;;;5.03;;
9745;SDS011;4912;50.836;12.958;2024-01-15T14:10:56;10.13;;;5.30;;
9745;SDS011;4912;50.836;12.958;2024-01-15T14:13:27;13.27;;;5.90;;
9745;SDS011;4912;50.836;12.958;2024-01-15T14:15:57;10.73;;;5.40;;
9745;SDS011;4912;50.836;12.958;2024-01-15T14:18:30;10.35;;;5.60;;
9745;SDS011;4912;50.836;12.958;2024-01-15T14:21:02;12.13;;;5.93;;
9745;SDS011;4912;50.836;12.958;2024-01-15T14:23:34;15.23;;;5.90;;
9745;SDS011;4912;50.836;12.958;2024-01-15T14:26:07;17.97;;;7.07;;
9745;SDS011;4912;50.836;12.958;2024-01-15T14:28:39;14.13;;;5.93;;
9745;SDS011;4912;50.836;12.958;2024-01-15T14:31:10;14.65;;;6.82;;
9745;SDS011;4912;50.836;12.958;2024-01-15T14:33:43;16.50;;;5.65;;
9745;SDS011;4912;50.836;12.958;2024-01-15T14:36:14;16.13;;;6.60;;
9745;SDS011;4912;50.836;12.958;2024-01-15T14:38:45;16.88;;;6.72;;
9745;SDS011;4912;50.836;12.958;2024-01-15T14:41:18;14.40;;;6.40;;
9745;SDS011;4912;50.836;12.958;2024-01-15T14:43:48;13.77;;;5.80;;
9745;SDS011;4912;50.836;12.958;2024-01-15T14:46:19;13.70;;;6.57;;
9745;SDS011;4912;50.836;12.958;2024-01-15T14:48:52;15.57;;;6.43;;
9745;SDS011;4912;50.836;12.958;2024-01-15T14:51:23;13.17;;;6.33;;
9745;SDS011;4912;50.836;12.958;2024-01-15T14:53:58;14.43;;;7.27;;
9745;SDS011;4912;50.836;12.958;2024-01-15T14:56:29;13.13;;;5.83;;
9745;SDS011;4912;50.836;12.958;2024-01-15T14:59:02;12.60;;;6.47;;
9745;SDS011;4912;50.836;12.958;2024-01-15T15:01:33;15.93;;;7.05;;
9745;SDS011;4912;50.836;12.958;2024-01-15T15:04:12;15.07;;;7.10;;
9745;SDS011;4912;50.836;12.958;2024-01-15T15:06:50;14.53;;;6.70;;
9745;SDS011;4912;50.836;12.958;2024-01-15T15:09:22;16.90;;;8.27;;
9745;SDS011;4912;50.836;12.958;2024-01-15T15:11:53;16.30;;;7.22;;
9745;SDS011;4912;50.836;12.958;2024-01-15T15:14:29;15.83;;;7.00;;
9745;SDS011;4912;50.836;12.958;2024-01-15T15:17:16;16.80;;;7.43;;
9745;SDS011;4912;50.836;12.958;2024-01-15T15:19:51;15.97;;;7.67;;
9745;SDS011;4912;50.836;12.958;2024-01-15T15:22:23;15.60;;;6.90;;
9745;SDS011;4912;50.836;12.958;2024-01-15T15:24:54;14.38;;;6.70;;
9745;SDS011;4912;50.836;12.958;2024-01-15T15:27:24;17.70;;;7.80;;
9745;SDS011;4912;50.836;12.958;2024-01-15T15:29:55;15.25;;;7.22;;
9745;SDS011;4912;50.836;12.958;2024-01-15T15:32:27;16.33;;;7.80;;
9745;SDS011;4912;50.836;12.958;2024-01-15T15:35:01;15.67;;;6.83;;
9745;SDS011;4912;50.836;12.958;2024-01-15T15:37:36;15.80;;;7.00;;
9745;SDS011;4912;50.836;12.958;2024-01-15T15:40:08;15.00;;;7.45;;
9745;SDS011;4912;50.836;12.958;2024-01-15T15:42:40;15.83;;;7.30;;